createdAt,value
2019-03-17T00:00:40.777Z,24.93
2019-03-17T00:03:11.171Z,24.17
2019-03-17T00:05:42.092Z,20.93
2019-03-17T00:08:13.920Z,22.70
2019-03-17T00:10:44.556Z,21.70
2019-03-17T00:13:17.603Z,21.17
2019-03-17T00:15:48.055Z,21.67
2019-03-17T00:18:19.705Z,19.77
2019-03-17T00:20:50.851Z,20.97
2019-03-17T00:23:21.194Z,20.80
2019-03-17T00:25:51.822Z,20.60
2019-03-17T00:28:22.611Z,21.43
2019-03-17T00:30:53.455Z,21.03
2019-03-17T00:33:23.689Z,19.43
2019-03-17T00:35:54.144Z,19.90
2019-03-17T00:38:24.763Z,18.77
2019-03-17T00:40:55.491Z,19.10
2019-03-17T00:43:26.136Z,20.27
2019-03-17T00:45:56.625Z,20.97
2019-03-17T00:48:27.375Z,19.93
2019-03-17T00:50:57.938Z,19.53
2019-03-17T00:53:29.491Z,19.67
2019-03-17T00:56:00.114Z,19.27
2019-03-17T00:58:30.784Z,18.90
2019-03-17T01:01:02.871Z,18.13
2019-03-17T01:03:33.887Z,18.63
2019-03-17T01:06:04.899Z,17.93
2019-03-17T01:08:35.755Z,19.33
2019-03-17T01:11:06.911Z,19.03
2019-03-17T01:13:37.602Z,18.60
2019-03-17T01:16:08.771Z,17.80
2019-03-17T01:18:39.171Z,18.20
2019-03-17T01:21:09.580Z,17.60
2019-03-17T01:23:40.389Z,17.10
2019-03-17T01:26:11.374Z,18.03
2019-03-17T01:28:42.315Z,18.77
2019-03-17T01:31:13.003Z,18.57
2019-03-17T01:33:44.140Z,16.77
2019-03-17T01:36:14.952Z,15.60
2019-03-17T01:38:46.892Z,16.47
2019-03-17T01:41:18.011Z,13.90
2019-03-17T01:43:48.675Z,16.40
2019-03-17T01:46:19.882Z,15.93
2019-03-17T01:48:50.789Z,17.00
2019-03-17T01:51:21.415Z,16.73
2019-03-17T01:53:53.193Z,16.80
2019-03-17T01:56:23.531Z,16.77
2019-03-17T01:58:55.203Z,16.10
2019-03-17T02:01:26.631Z,15.57
2019-03-17T02:03:57.152Z,19.30
2019-03-17T02:06:27.764Z,17.53
2019-03-17T02:08:58.730Z,18.20
2019-03-17T02:11:29.731Z,18.27
2019-03-17T02:14:01.095Z,21.10
2019-03-17T02:16:32.211Z,23.33
2019-03-17T02:19:03.178Z,18.93
2019-03-17T02:21:34.227Z,17.70
2019-03-17T02:24:05.330Z,18.80
2019-03-17T02:26:36.298Z,20.20
2019-03-17T02:29:06.974Z,19.60
2019-03-17T02:31:37.321Z,20.87
2019-03-17T02:34:11.487Z,21.73
2019-03-17T02:36:40.027Z,19.93
2019-03-17T02:39:11.690Z,19.40
2019-03-17T02:41:42.311Z,19.73
2019-03-17T02:44:12.928Z,20.03
2019-03-17T02:46:43.655Z,19.53
2019-03-17T02:49:15.336Z,18.93
2019-03-17T02:51:45.771Z,20.27
2019-03-17T02:54:16.481Z,18.80
2019-03-17T02:56:47.817Z,18.53
2019-03-17T02:59:20.231Z,20.83
2019-03-17T03:01:51.014Z,18.43
2019-03-17T03:04:22.540Z,18.30
2019-03-17T03:06:53.012Z,17.10
2019-03-17T03:09:24.065Z,18.93
2019-03-17T03:11:54.504Z,16.73
2019-03-17T03:14:25.023Z,18.90
2019-03-17T03:16:56.149Z,16.93
2019-03-17T03:19:26.967Z,18.07
2019-03-17T03:21:58.245Z,18.57
2019-03-17T03:24:29.885Z,18.70
2019-03-17T03:27:00.303Z,17.50
2019-03-17T03:29:31.061Z,18.47
2019-03-17T03:32:01.451Z,18.27
2019-03-17T03:34:31.919Z,17.90
2019-03-17T03:37:02.652Z,18.90
2019-03-17T03:39:33.286Z,16.97
2019-03-17T03:42:04.927Z,17.80
2019-03-17T03:44:35.342Z,16.80
2019-03-17T03:47:06.051Z,17.60
2019-03-17T03:49:36.784Z,16.73
2019-03-17T03:52:07.712Z,16.27
2019-03-17T03:54:38.628Z,17.80
2019-03-17T03:57:10.742Z,17.33
2019-03-17T03:59:40.927Z,18.07
2019-03-17T04:02:11.410Z,16.93
2019-03-17T04:04:42.141Z,16.93
2019-03-17T04:07:12.805Z,17.00
2019-03-17T04:09:43.459Z,16.17
2019-03-17T04:12:14.631Z,15.80
2019-03-17T04:14:45.243Z,14.07
2019-03-17T04:17:16.065Z,15.87
2019-03-17T04:19:47.403Z,14.83
2019-03-17T04:22:19.414Z,14.30
2019-03-17T04:24:50.595Z,14.00
2019-03-17T04:27:21.298Z,14.87
2019-03-17T04:29:52.543Z,14.87
2019-03-17T04:32:23.447Z,15.57
2019-03-17T04:34:54.442Z,14.53
2019-03-17T04:37:26.512Z,15.67
2019-03-17T04:39:57.215Z,15.10
2019-03-17T04:42:27.689Z,13.97
2019-03-17T04:44:58.696Z,14.50
2019-03-17T04:47:29.335Z,14.13
2019-03-17T04:50:00.348Z,15.50
2019-03-17T04:52:31.141Z,14.20
2019-03-17T04:55:02.316Z,14.23
2019-03-17T04:57:32.935Z,14.00
2019-03-17T05:00:03.771Z,14.60
2019-03-17T05:02:36.307Z,14.20
2019-03-17T05:05:08.274Z,15.33
2019-03-17T05:07:38.844Z,14.27
2019-03-17T05:10:09.471Z,15.73
2019-03-17T05:12:40.042Z,14.80
2019-03-17T05:15:11.658Z,16.00
2019-03-17T05:17:42.859Z,14.87
2019-03-17T05:20:15.440Z,16.40
2019-03-17T05:22:46.676Z,15.20
2019-03-17T05:25:17.153Z,14.87
2019-03-17T05:27:48.253Z,14.13
2019-03-17T05:30:19.016Z,16.43
2019-03-17T05:32:50.614Z,15.20
2019-03-17T05:35:21.373Z,15.27
2019-03-17T05:37:51.811Z,13.87
2019-03-17T05:40:22.550Z,16.00
2019-03-17T05:42:53.283Z,13.63
2019-03-17T05:45:24.862Z,14.60
2019-03-17T05:47:55.348Z,13.70
2019-03-17T05:50:25.942Z,15.47
2019-03-17T05:52:57.023Z,14.50
2019-03-17T05:55:28.352Z,15.43
2019-03-17T05:57:59.348Z,14.63
2019-03-17T06:00:30.611Z,15.90
2019-03-17T06:03:01.588Z,14.33
2019-03-17T06:05:31.987Z,14.73
2019-03-17T06:08:02.693Z,15.33
2019-03-17T06:10:34.067Z,14.27
2019-03-17T06:13:05.017Z,14.13
2019-03-17T06:15:36.143Z,15.97
2019-03-17T06:18:06.619Z,14.97
2019-03-17T06:20:37.327Z,15.20
2019-03-17T06:23:07.891Z,15.50
2019-03-17T06:25:39.036Z,15.53
2019-03-17T06:28:09.741Z,15.60
2019-03-17T06:30:40.323Z,15.40
2019-03-17T06:33:10.740Z,16.00
2019-03-17T06:35:41.264Z,15.33
2019-03-17T06:38:14.875Z,15.17
2019-03-17T06:40:45.852Z,17.40
2019-03-17T06:43:16.856Z,16.00
2019-03-17T06:45:47.448Z,15.47
2019-03-17T06:48:18.697Z,15.93
2019-03-17T06:50:49.418Z,15.47
2019-03-17T06:53:21.195Z,16.37
2019-03-17T06:55:53.498Z,17.07
2019-03-17T06:58:24.602Z,17.20
2019-03-17T07:00:55.577Z,17.03
2019-03-17T07:03:25.932Z,17.33
2019-03-17T07:05:56.518Z,18.00
2019-03-17T07:08:27.146Z,19.07
2019-03-17T07:10:57.748Z,19.37
2019-03-17T07:13:28.652Z,19.10
2019-03-17T07:15:59.507Z,19.93
2019-03-17T07:18:30.166Z,19.23
2019-03-17T07:21:02.251Z,19.40
2019-03-17T07:23:34.340Z,20.20
2019-03-17T07:26:05.372Z,19.93
2019-03-17T07:28:35.968Z,20.73
2019-03-17T07:31:07.019Z,20.80
2019-03-17T07:33:38.100Z,20.73
2019-03-17T07:36:09.280Z,20.20
2019-03-17T07:38:42.134Z,19.90
2019-03-17T07:41:12.947Z,21.17
2019-03-17T07:43:44.301Z,19.70
2019-03-17T07:46:17.585Z,19.50
2019-03-17T07:48:49.400Z,19.30
2019-03-17T07:51:20.299Z,20.23
2019-03-17T07:53:50.942Z,19.53
2019-03-17T07:56:21.800Z,18.57
2019-03-17T07:58:52.229Z,19.27
2019-03-17T08:01:36.482Z,18.80
2019-03-17T08:04:07.032Z,18.93
2019-03-17T08:06:37.361Z,19.57
2019-03-17T08:09:10.756Z,19.77
2019-03-17T08:11:44.538Z,20.20
2019-03-17T08:14:24.492Z,19.20
2019-03-17T08:17:00.156Z,18.97
2019-03-17T08:19:36.609Z,18.93
2019-03-17T08:22:10.266Z,18.57
2019-03-17T08:24:44.856Z,17.77
2019-03-17T08:27:18.897Z,17.63
2019-03-17T08:29:54.787Z,18.97
2019-03-17T08:32:29.209Z,19.03
2019-03-17T08:35:08.339Z,19.13
2019-03-17T08:37:47.026Z,17.90
2019-03-17T08:40:33.888Z,17.70
2019-03-17T08:43:04.844Z,17.50
2019-03-17T08:45:35.861Z,18.93
2019-03-17T08:48:44.679Z,18.40
2019-03-17T08:51:14.741Z,19.00
2019-03-17T08:53:46.507Z,17.33
2019-03-17T08:56:17.418Z,17.30
2019-03-17T08:58:47.851Z,17.70
2019-03-17T09:01:18.860Z,17.20
2019-03-17T09:03:49.594Z,16.93
2019-03-17T09:06:20.218Z,17.70
2019-03-17T09:08:52.054Z,18.50
2019-03-17T09:11:22.701Z,18.07
2019-03-17T09:13:53.723Z,18.60
2019-03-17T09:16:25.604Z,18.03
2019-03-17T09:18:56.426Z,18.50
2019-03-17T09:21:28.609Z,17.03
2019-03-17T09:23:59.308Z,18.63
2019-03-17T09:26:32.684Z,18.10
2019-03-17T09:29:03.427Z,17.63
2019-03-17T09:31:33.909Z,17.50
2019-03-17T09:34:04.513Z,18.20
2019-03-17T09:36:35.337Z,18.63
2019-03-17T09:39:07.570Z,17.83
2019-03-17T09:41:38.233Z,17.90
2019-03-17T09:44:09.091Z,18.10
2019-03-17T09:46:40.591Z,17.50
2019-03-17T09:49:11.515Z,17.33
2019-03-17T09:51:41.953Z,16.93
2019-03-17T09:54:13.560Z,16.90
2019-03-17T09:56:44.621Z,18.57
2019-03-17T09:59:15.343Z,16.40
2019-03-17T10:01:46.403Z,17.10
2019-03-17T10:04:17.566Z,17.30
2019-03-17T10:06:48.746Z,16.30
2019-03-17T10:09:20.032Z,17.37
2019-03-17T10:11:51.507Z,16.87
2019-03-17T10:14:21.966Z,16.03
2019-03-17T10:16:52.582Z,16.30
2019-03-17T10:19:23.374Z,16.13
2019-03-17T10:21:54.097Z,16.37
2019-03-17T10:24:25.092Z,16.97
2019-03-17T10:26:55.632Z,16.37
2019-03-17T10:29:27.572Z,16.07
2019-03-17T10:31:58.169Z,16.47
2019-03-17T10:34:31.768Z,16.53
2019-03-17T10:37:02.445Z,17.20
2019-03-17T10:39:33.312Z,17.47
2019-03-17T10:42:04.202Z,16.93
2019-03-17T10:44:34.752Z,17.37
2019-03-17T10:47:05.286Z,16.93
2019-03-17T10:49:36.468Z,16.20
2019-03-17T10:52:08.155Z,16.93
2019-03-17T10:54:39.184Z,16.10
2019-03-17T10:57:10.227Z,15.90
2019-03-17T10:59:42.539Z,16.20
2019-03-17T11:02:13.246Z,16.67
2019-03-17T11:04:44.129Z,17.17
2019-03-17T11:07:14.697Z,16.77
2019-03-17T11:09:45.523Z,16.53
2019-03-17T11:12:16.474Z,17.43
2019-03-17T11:14:47.366Z,16.40
2019-03-17T11:17:18.777Z,19.13
2019-03-17T11:19:50.129Z,17.73
2019-03-17T11:22:20.946Z,17.40
2019-03-17T11:24:52.945Z,16.50
2019-03-17T11:27:23.375Z,16.27
2019-03-17T11:29:54.153Z,16.13
2019-03-17T11:32:25.068Z,16.10
2019-03-17T11:34:56.505Z,16.47
2019-03-17T11:37:27.207Z,16.30
2019-03-17T11:39:57.913Z,15.27
2019-03-17T11:42:28.888Z,15.60
2019-03-17T11:44:59.568Z,16.23
2019-03-17T11:47:30.575Z,16.37
2019-03-17T11:50:01.500Z,15.47
2019-03-17T11:52:33.923Z,16.30
2019-03-17T11:55:06.671Z,19.00
2019-03-17T11:57:37.328Z,17.57
2019-03-17T12:00:13.708Z,16.43
2019-03-17T12:02:44.985Z,16.10
2019-03-17T12:05:20.196Z,16.13
2019-03-17T12:07:51.282Z,15.50
2019-03-17T12:10:23.219Z,15.33
2019-03-17T12:13:00.594Z,18.20
2019-03-17T12:15:34.025Z,15.73
2019-03-17T12:18:05.688Z,15.53
2019-03-17T12:20:36.790Z,15.47
2019-03-17T12:23:08.192Z,15.23
2019-03-17T12:25:39.490Z,15.77
2019-03-17T12:28:10.650Z,16.43
2019-03-17T12:30:41.883Z,16.93
2019-03-17T12:33:12.653Z,15.30
2019-03-17T12:35:44.381Z,15.50
2019-03-17T12:38:22.561Z,15.87
2019-03-17T12:40:54.039Z,15.23
2019-03-17T12:43:26.030Z,15.77
2019-03-17T12:45:57.596Z,15.80
2019-03-17T12:48:29.389Z,16.80
2019-03-17T12:51:00.120Z,16.00
2019-03-17T12:53:30.861Z,16.87
2019-03-17T12:56:02.024Z,16.73
2019-03-17T12:58:33.582Z,16.60
2019-03-17T13:01:04.120Z,16.37
2019-03-17T13:03:35.782Z,15.40
2019-03-17T13:06:07.414Z,15.80
2019-03-17T13:08:38.631Z,16.03
2019-03-17T13:11:10.427Z,15.97
2019-03-17T13:13:42.066Z,16.50
2019-03-17T13:16:13.586Z,16.30
2019-03-17T13:18:45.261Z,16.47
2019-03-17T13:21:16.924Z,15.80
2019-03-17T13:23:48.781Z,16.40
2019-03-17T13:26:21.670Z,16.27
2019-03-17T13:28:54.541Z,16.30
2019-03-17T13:31:25.954Z,16.07
2019-03-17T13:33:57.189Z,15.93
2019-03-17T13:36:28.429Z,15.93
2019-03-17T13:39:00.327Z,15.17
2019-03-17T13:41:32.562Z,15.60
2019-03-17T13:44:03.921Z,15.93
2019-03-17T13:46:36.297Z,17.03
2019-03-17T13:49:08.297Z,15.77
2019-03-17T13:51:39.381Z,16.37
2019-03-17T13:54:11.694Z,16.20
2019-03-17T13:56:42.704Z,16.83
2019-03-17T13:59:14.310Z,16.87
2019-03-17T14:01:47.022Z,16.43
2019-03-17T14:04:18.357Z,16.03
2019-03-17T14:06:49.828Z,16.03
2019-03-17T14:09:22.703Z,16.53
2019-03-17T14:11:54.555Z,15.20
2019-03-17T14:14:27.635Z,16.27
2019-03-17T14:16:58.993Z,16.00
2019-03-17T14:19:30.531Z,16.27
2019-03-17T14:22:02.896Z,15.87
2019-03-17T14:24:34.584Z,16.30
2019-03-17T14:27:06.821Z,15.53
2019-03-17T14:29:39.023Z,15.97
2019-03-17T14:32:11.049Z,16.30
2019-03-17T14:34:42.629Z,14.50
2019-03-17T14:37:14.222Z,14.77
2019-03-17T14:39:46.504Z,14.50
2019-03-17T14:42:17.518Z,15.30
2019-03-17T14:44:48.514Z,16.53
2019-03-17T14:47:18.992Z,14.80
2019-03-17T14:49:49.596Z,15.37
2019-03-17T14:52:20.187Z,14.73
2019-03-17T14:54:50.911Z,15.60
2019-03-17T14:57:21.790Z,15.40
2019-03-17T14:59:52.346Z,14.73
2019-03-17T15:02:22.755Z,15.47
2019-03-17T15:04:55.592Z,14.73
2019-03-17T15:07:26.054Z,14.43
2019-03-17T15:09:56.525Z,15.03
2019-03-17T15:12:27.120Z,14.17
2019-03-17T15:14:57.721Z,14.70
2019-03-17T15:17:28.369Z,15.07
2019-03-17T15:19:58.901Z,14.50
2019-03-17T15:22:30.555Z,15.53
2019-03-17T15:25:01.193Z,14.60
2019-03-17T15:27:32.736Z,16.47
2019-03-17T15:30:03.563Z,20.57
2019-03-17T15:32:34.007Z,18.30
2019-03-17T15:35:04.892Z,41.77
2019-03-17T15:37:35.707Z,16.30
2019-03-17T15:40:07.249Z,15.57
2019-03-17T15:42:37.844Z,15.47
2019-03-17T15:45:10.199Z,15.47
2019-03-17T15:47:42.318Z,14.70
2019-03-17T15:50:15.568Z,16.17
2019-03-17T15:52:46.512Z,23.30
2019-03-17T15:55:17.429Z,16.87
2019-03-17T15:57:48.000Z,16.10
2019-03-17T16:00:25.559Z,16.67
2019-03-17T16:03:10.729Z,15.07
2019-03-17T16:05:41.282Z,15.77
2019-03-17T16:08:11.959Z,16.60
2019-03-17T16:10:44.182Z,16.47
2019-03-17T16:13:15.365Z,16.50
2019-03-17T16:15:46.056Z,18.03
2019-03-17T16:18:16.929Z,17.67
2019-03-17T16:20:47.360Z,16.13
2019-03-17T16:23:18.047Z,16.03
2019-03-17T16:25:50.598Z,15.53
2019-03-17T16:28:32.403Z,17.63
2019-03-17T16:31:03.647Z,14.60
2019-03-17T16:33:34.265Z,13.80
2019-03-17T16:36:04.956Z,14.50
2019-03-17T16:38:35.698Z,15.30
2019-03-17T16:41:06.339Z,15.23
2019-03-17T16:43:36.812Z,15.90
2019-03-17T16:46:07.406Z,15.77
2019-03-17T16:48:37.859Z,15.53
2019-03-17T16:51:08.931Z,14.60
2019-03-17T16:53:39.922Z,16.63
2019-03-17T16:56:10.623Z,15.77
2019-03-17T16:58:41.444Z,16.00
2019-03-17T17:01:11.939Z,15.47
2019-03-17T17:03:42.512Z,16.43
2019-03-17T17:06:13.984Z,15.80
2019-03-17T17:08:44.762Z,14.77
2019-03-17T17:11:15.197Z,15.83
2019-03-17T17:13:45.697Z,15.17
2019-03-17T17:16:16.074Z,14.87
2019-03-17T17:18:46.518Z,14.93
2019-03-17T17:21:17.050Z,15.63
2019-03-17T17:23:47.862Z,15.63
2019-03-17T17:26:18.630Z,15.73
2019-03-17T17:28:49.314Z,14.70
2019-03-17T17:31:21.257Z,15.40
2019-03-17T17:33:51.870Z,14.80
2019-03-17T17:36:22.325Z,16.50
2019-03-17T17:38:52.770Z,15.73
2019-03-17T17:41:25.449Z,17.30
2019-03-17T17:44:01.225Z,17.20
2019-03-17T17:46:32.470Z,17.87
2019-03-17T17:49:03.001Z,18.33
2019-03-17T17:51:37.261Z,19.27
2019-03-17T17:54:08.402Z,16.73
2019-03-17T17:56:41.231Z,17.20
2019-03-17T17:59:11.879Z,16.97
2019-03-17T18:01:42.995Z,16.67
2019-03-17T18:04:14.664Z,16.00
2019-03-17T18:06:46.748Z,16.77
2019-03-17T18:09:17.936Z,17.40
2019-03-17T18:11:48.644Z,17.40
2019-03-17T18:14:19.658Z,17.80
2019-03-17T18:16:50.709Z,17.87
2019-03-17T18:19:21.677Z,17.10
2019-03-17T18:21:52.850Z,18.60
2019-03-17T18:24:24.024Z,16.90
2019-03-17T18:26:55.566Z,18.27
2019-03-17T18:29:26.521Z,19.00
2019-03-17T18:31:57.529Z,19.57
2019-03-17T18:34:29.814Z,19.03
2019-03-17T18:37:00.934Z,20.27
2019-03-17T18:39:31.848Z,20.57
2019-03-17T18:42:02.943Z,17.20
2019-03-17T18:44:33.764Z,16.57
2019-03-17T18:47:04.489Z,17.50
2019-03-17T18:49:35.957Z,16.77
2019-03-17T18:52:07.523Z,17.57
2019-03-17T18:54:39.880Z,15.87
2019-03-17T18:57:11.363Z,16.70
2019-03-17T18:59:43.318Z,15.40
2019-03-17T19:02:14.531Z,15.40
2019-03-17T19:04:45.292Z,15.40
2019-03-17T19:07:16.873Z,14.30
2019-03-17T19:09:48.153Z,14.43
2019-03-17T19:12:20.965Z,14.30
2019-03-17T19:14:51.914Z,14.03
2019-03-17T19:17:23.549Z,14.17
2019-03-17T19:19:54.926Z,13.70
2019-03-17T19:22:26.916Z,14.10
2019-03-17T19:24:58.282Z,13.70
2019-03-17T19:27:29.975Z,13.93
2019-03-17T19:30:01.439Z,14.07
2019-03-17T19:32:32.813Z,14.40
2019-03-17T19:35:04.234Z,13.77
2019-03-17T19:37:35.849Z,14.00
2019-03-17T19:40:08.222Z,14.10
2019-03-17T19:42:40.103Z,14.07
2019-03-17T19:45:11.535Z,13.97
2019-03-17T19:47:42.525Z,14.50
2019-03-17T19:50:16.315Z,13.50
2019-03-17T19:52:47.572Z,14.13
2019-03-17T19:55:21.076Z,14.73
2019-03-17T19:58:03.311Z,14.00
2019-03-17T20:00:35.466Z,13.40
2019-03-17T20:03:07.994Z,13.07
2019-03-17T20:05:39.270Z,13.47
2019-03-17T20:08:10.316Z,13.60
2019-03-17T20:10:43.107Z,12.67
2019-03-17T20:13:14.440Z,13.83
2019-03-17T20:15:46.686Z,13.10
2019-03-17T20:18:18.389Z,11.60
2019-03-17T20:20:49.844Z,11.80
2019-03-17T20:23:21.739Z,12.00
2019-03-17T20:25:53.064Z,12.27
2019-03-17T20:28:24.552Z,12.30
2019-03-17T20:30:56.182Z,11.40
2019-03-17T20:33:28.934Z,11.70
2019-03-17T20:36:00.799Z,11.30
2019-03-17T20:38:31.936Z,12.77
2019-03-17T20:41:02.834Z,12.33
2019-03-17T20:43:35.195Z,12.07
2019-03-17T20:46:16.242Z,12.70
2019-03-17T20:48:48.641Z,12.13
2019-03-17T20:51:19.629Z,12.10
2019-03-17T20:53:50.260Z,11.60
2019-03-17T20:56:22.688Z,11.93
2019-03-17T20:58:53.597Z,11.87
2019-03-17T21:01:24.741Z,11.50
2019-03-17T21:03:55.755Z,11.27
2019-03-17T21:06:27.031Z,11.00
2019-03-17T21:08:58.755Z,11.23
2019-03-17T21:11:31.721Z,11.70
2019-03-17T21:14:02.348Z,11.10
2019-03-17T21:16:35.049Z,11.73
2019-03-17T21:19:06.668Z,11.33
2019-03-17T21:21:38.086Z,11.77
2019-03-17T21:24:09.160Z,11.33
2019-03-17T21:26:43.381Z,12.80
2019-03-17T21:29:15.968Z,12.60
2019-03-17T21:31:47.573Z,12.47
2019-03-17T21:34:18.690Z,12.70
2019-03-17T21:36:50.305Z,12.50
2019-03-17T21:39:24.535Z,13.67
2019-03-17T21:41:55.342Z,12.53
2019-03-17T21:44:26.763Z,11.70
2019-03-17T21:46:59.003Z,11.60
2019-03-17T21:49:31.369Z,11.70
2019-03-17T21:52:02.313Z,11.53
2019-03-17T21:54:33.902Z,11.43
2019-03-17T21:57:04.963Z,11.40
2019-03-17T21:59:36.101Z,11.80
2019-03-17T22:02:12.917Z,11.37
2019-03-17T22:04:40.176Z,11.70
2019-03-17T22:07:12.113Z,11.80
2019-03-17T22:09:43.506Z,12.10
2019-03-17T22:12:14.549Z,12.13
2019-03-17T22:14:45.362Z,12.20
2019-03-17T22:17:16.997Z,11.77
2019-03-17T22:19:47.961Z,11.43
2019-03-17T22:22:18.742Z,10.83
2019-03-17T22:24:49.628Z,11.10
2019-03-17T22:27:21.827Z,10.90
2019-03-17T22:29:53.983Z,11.13
2019-03-17T22:32:24.435Z,10.60
2019-03-17T22:34:54.941Z,10.53
2019-03-17T22:37:25.823Z,9.67
2019-03-17T22:39:56.506Z,10.80
2019-03-17T22:42:27.595Z,9.93
2019-03-17T22:44:57.768Z,9.50
2019-03-17T22:47:28.462Z,8.20
2019-03-17T22:49:59.496Z,8.90
2019-03-17T22:52:29.960Z,8.57
2019-03-17T22:55:00.769Z,7.57
2019-03-17T22:57:31.678Z,7.50
2019-03-17T23:00:02.337Z,7.50
2019-03-17T23:02:33.121Z,7.80
2019-03-17T23:05:04.107Z,7.70
2019-03-17T23:07:35.363Z,7.27
2019-03-17T23:10:08.157Z,6.17
2019-03-17T23:12:38.869Z,6.60
2019-03-17T23:15:09.768Z,7.03
2019-03-17T23:17:40.682Z,6.80
2019-03-17T23:20:11.610Z,6.93
2019-03-17T23:22:42.361Z,6.50
2019-03-17T23:25:13.099Z,6.67
2019-03-17T23:27:44.248Z,6.30
2019-03-17T23:30:14.872Z,6.57
2019-03-17T23:32:45.362Z,6.13
2019-03-17T23:35:16.041Z,6.50
2019-03-17T23:37:46.678Z,6.50
2019-03-17T23:40:18.345Z,6.77
2019-03-17T23:42:48.868Z,7.20
2019-03-17T23:45:19.380Z,7.13
2019-03-17T23:47:49.821Z,7.43
2019-03-17T23:50:20.495Z,6.90
2019-03-17T23:52:51.424Z,6.60
2019-03-17T23:55:22.131Z,7.57
2019-03-17T23:57:53.120Z,8.20
